sensor_id;sensor_type;location;lat;lon;timestamp;P1;durP1;ratioP1;P2;durP2;ratioP2
39032;SDS011;24794;51.982;5.878;2023-04-01T00:00:11;6.85;;;2.40;;
39032;SDS011;24794;51.982;5.878;2023-04-01T00:01:13;7.70;;;2.45;;
39032;SDS011;24794;51.982;5.878;2023-04-01T00:02:14;7.53;;;2.10;;
39032;SDS011;24794;51.982;5.878;2023-04-01T00:03:15;6.28;;;2.47;;
39032;SDS011;24794;51.982;5.878;2023-04-01T00:04:16;7.00;;;2.33;;
39032;SDS011;24794;51.982;5.878;2023-04-01T00:05:16;10.35;;;3.22;;
39032;SDS011;24794;51.982;5.878;2023-04-01T00:06:17;9.05;;;3.00;;
39032;SDS011;24794;51.982;5.878;2023-04-01T00:07:18;5.35;;;2.42;;
39032;SDS011;24794;51.982;5.878;2023-04-01T00:08:19;7.78;;;2.38;;
39032;SDS011;24794;51.982;5.878;2023-04-01T00:09:20;9.07;;;2.63;;
39032;SDS011;24794;51.982;5.878;2023-04-01T00:10:20;5.57;;;2.75;;
39032;SDS011;24794;51.982;5.878;2023-04-01T00:11:21;8.80;;;2.70;;
39032;SDS011;24794;51.982;5.878;2023-04-01T00:12:21;8.90;;;3.00;;
39032;SDS011;24794;51.982;5.878;2023-04-01T00:13:23;5.80;;;2.70;;
39032;SDS011;24794;51.982;5.878;2023-04-01T00:14:25;6.18;;;2.17;;
39032;SDS011;24794;51.982;5.878;2023-04-01T00:15:26;6.35;;;2.25;;
39032;SDS011;24794;51.982;5.878;2023-04-01T00:16:26;7.82;;;2.30;;
39032;SDS011;24794;51.982;5.878;2023-04-01T00:17:27;7.32;;;2.53;;
39032;SDS011;24794;51.982;5.878;2023-04-01T00:18:28;6.55;;;3.50;;
39032;SDS011;24794;51.982;5.878;2023-04-01T00:19:28;7.88;;;3.00;;
39032;SDS011;24794;51.982;5.878;2023-04-01T00:20:29;7.65;;;3.40;;
39032;SDS011;24794;51.982;5.878;2023-04-01T00:21:30;6.90;;;3.70;;
39032;SDS011;24794;51.982;5.878;2023-04-01T00:22:30;6.80;;;4.82;;
39032;SDS011;24794;51.982;5.878;2023-04-01T00:23:31;7.97;;;4.00;;
39032;SDS011;24794;51.982;5.878;2023-04-01T00:24:32;7.95;;;4.65;;
39032;SDS011;24794;51.982;5.878;2023-04-01T00:25:32;8.50;;;3.80;;
39032;SDS011;24794;51.982;5.878;2023-04-01T00:26:33;6.90;;;5.03;;
39032;SDS011;24794;51.982;5.878;2023-04-01T00:27:33;7.57;;;4.20;;
39032;SDS011;24794;51.982;5.878;2023-04-01T00:28:34;6.28;;;4.50;;
39032;SDS011;24794;51.982;5.878;2023-04-01T00:29:35;7.75;;;5.22;;
39032;SDS011;24794;51.982;5.878;2023-04-01T00:30:36;8.02;;;6.70;;
39032;SDS011;24794;51.982;5.878;2023-04-01T00:31:37;8.85;;;6.00;;
39032;SDS011;24794;51.982;5.878;2023-04-01T00:32:38;11.70;;;9.73;;
39032;SDS011;24794;51.982;5.878;2023-04-01T00:33:39;10.10;;;6.20;;
39032;SDS011;24794;51.982;5.878;2023-04-01T00:34:41;7.75;;;5.43;;
39032;SDS011;24794;51.982;5.878;2023-04-01T00:35:41;12.05;;;7.65;;
39032;SDS011;24794;51.982;5.878;2023-04-01T00:36:42;11.57;;;5.72;;
39032;SDS011;24794;51.982;5.878;2023-04-01T00:37:42;7.97;;;5.22;;
39032;SDS011;24794;51.982;5.878;2023-04-01T00:38:43;9.15;;;6.07;;
39032;SDS011;24794;51.982;5.878;2023-04-01T00:39:44;6.55;;;4.50;;
39032;SDS011;24794;51.982;5.878;2023-04-01T00:40:46;10.40;;;6.20;;
39032;SDS011;24794;51.982;5.878;2023-04-01T00:41:47;10.35;;;6.45;;
39032;SDS011;24794;51.982;5.878;2023-04-01T00:42:47;6.82;;;4.20;;
39032;SDS011;24794;51.982;5.878;2023-04-01T00:43:49;8.57;;;4.65;;
39032;SDS011;24794;51.982;5.878;2023-04-01T00:44:51;6.43;;;4.40;;
39032;SDS011;24794;51.982;5.878;2023-04-01T00:45:53;9.57;;;4.32;;
39032;SDS011;24794;51.982;5.878;2023-04-01T00:46:54;10.48;;;5.32;;
39032;SDS011;24794;51.982;5.878;2023-04-01T00:47:55;6.30;;;4.45;;
39032;SDS011;24794;51.982;5.878;2023-04-01T00:48:58;8.98;;;5.10;;
39032;SDS011;24794;51.982;5.878;2023-04-01T00:50:00;8.80;;;5.10;;
39032;SDS011;24794;51.982;5.878;2023-04-01T00:51:06;8.63;;;5.60;;
39032;SDS011;24794;51.982;5.878;2023-04-01T00:52:11;8.60;;;4.40;;
39032;SDS011;24794;51.982;5.878;2023-04-01T00:53:16;8.45;;;4.90;;
39032;SDS011;24794;51.982;5.878;2023-04-01T00:54:19;7.90;;;5.07;;
39032;SDS011;24794;51.982;5.878;2023-04-01T00:55:22;9.93;;;5.68;;
39032;SDS011;24794;51.982;5.878;2023-04-01T00:56:27;9.80;;;5.13;;
39032;SDS011;24794;51.982;5.878;2023-04-01T00:57:34;12.75;;;6.60;;
39032;SDS011;24794;51.982;5.878;2023-04-01T00:58:38;7.85;;;6.05;;
39032;SDS011;24794;51.982;5.878;2023-04-01T00:59:43;10.32;;;6.03;;
39032;SDS011;24794;51.982;5.878;2023-04-01T01:00:46;10.32;;;5.90;;
39032;SDS011;24794;51.982;5.878;2023-04-01T01:01:49;9.13;;;6.50;;
39032;SDS011;24794;51.982;5.878;2023-04-01T01:02:50;13.02;;;6.93;;
39032;SDS011;24794;51.982;5.878;2023-04-01T01:03:51;11.00;;;7.55;;
39032;SDS011;24794;51.982;5.878;2023-04-01T01:04:52;10.90;;;7.10;;
39032;SDS011;24794;51.982;5.878;2023-04-01T01:11:34;12.68;;;8.30;;
39032;SDS011;24794;51.982;5.878;2023-04-01T01:16:06;13.05;;;9.27;;
39032;SDS011;24794;51.982;5.878;2023-04-01T01:17:32;16.77;;;9.57;;
39032;SDS011;24794;51.982;5.878;2023-04-01T01:18:58;15.88;;;10.05;;
39032;SDS011;24794;51.982;5.878;2023-04-01T01:20:24;14.70;;;10.20;;
39032;SDS011;24794;51.982;5.878;2023-04-01T01:21:42;19.23;;;12.02;;
39032;SDS011;24794;51.982;5.878;2023-04-01T01:24:49;20.95;;;11.82;;
39032;SDS011;24794;51.982;5.878;2023-04-01T01:26:09;18.77;;;11.27;;
39032;SDS011;24794;51.982;5.878;2023-04-01T01:27:25;19.63;;;12.60;;
39032;SDS011;24794;51.982;5.878;2023-04-01T01:29:53;19.10;;;11.68;;
39032;SDS011;24794;51.982;5.878;2023-04-01T01:31:19;15.38;;;10.85;;
39032;SDS011;24794;51.982;5.878;2023-04-01T01:36:48;17.95;;;12.18;;
39032;SDS011;24794;51.982;5.878;2023-04-01T01:38:08;17.23;;;10.85;;
39032;SDS011;24794;51.982;5.878;2023-04-01T01:39:12;22.25;;;13.90;;
39032;SDS011;24794;51.982;5.878;2023-04-01T01:40:14;17.17;;;13.00;;
39032;SDS011;24794;51.982;5.878;2023-04-01T01:41:16;19.35;;;12.82;;
39032;SDS011;24794;51.982;5.878;2023-04-01T01:42:18;17.35;;;12.00;;
39032;SDS011;24794;51.982;5.878;2023-04-01T01:43:25;20.40;;;14.10;;
39032;SDS011;24794;51.982;5.878;2023-04-01T01:44:28;23.95;;;13.13;;
39032;SDS011;24794;51.982;5.878;2023-04-01T01:45:30;23.83;;;14.13;;
39032;SDS011;24794;51.982;5.878;2023-04-01T01:46:34;16.92;;;12.10;;
39032;SDS011;24794;51.982;5.878;2023-04-01T01:47:38;17.52;;;12.45;;
39032;SDS011;24794;51.982;5.878;2023-04-01T01:48:41;18.27;;;12.35;;
39032;SDS011;24794;51.982;5.878;2023-04-01T01:49:43;18.95;;;12.93;;
39032;SDS011;24794;51.982;5.878;2023-04-01T01:50:44;16.98;;;12.02;;
39032;SDS011;24794;51.982;5.878;2023-04-01T01:51:46;18.17;;;11.60;;
39032;SDS011;24794;51.982;5.878;2023-04-01T01:52:48;16.48;;;11.77;;
39032;SDS011;24794;51.982;5.878;2023-04-01T01:53:48;18.35;;;12.13;;
39032;SDS011;24794;51.982;5.878;2023-04-01T01:54:50;15.02;;;11.45;;
39032;SDS011;24794;51.982;5.878;2023-04-01T01:55:52;19.15;;;11.18;;
39032;SDS011;24794;51.982;5.878;2023-04-01T01:56:55;17.83;;;10.95;;
39032;SDS011;24794;51.982;5.878;2023-04-01T01:58:11;16.35;;;10.05;;
39032;SDS011;24794;51.982;5.878;2023-04-01T01:59:19;17.17;;;11.10;;
39032;SDS011;24794;51.982;5.878;2023-04-01T02:00:22;21.05;;;10.48;;
39032;SDS011;24794;51.982;5.878;2023-04-01T02:01:24;15.43;;;9.10;;
39032;SDS011;24794;51.982;5.878;2023-04-01T02:02:27;20.80;;;10.05;;
39032;SDS011;24794;51.982;5.878;2023-04-01T02:03:33;19.75;;;9.18;;
39032;SDS011;24794;51.982;5.878;2023-04-01T02:04:40;18.23;;;8.75;;
39032;SDS011;24794;51.982;5.878;2023-04-01T02:05:43;16.55;;;8.50;;
39032;SDS011;24794;51.982;5.878;2023-04-01T02:07:01;22.83;;;8.80;;
39032;SDS011;24794;51.982;5.878;2023-04-01T02:08:07;23.50;;;8.80;;
39032;SDS011;24794;51.982;5.878;2023-04-01T02:09:13;21.85;;;8.00;;
39032;SDS011;24794;51.982;5.878;2023-04-01T02:10:14;21.92;;;8.30;;
39032;SDS011;24794;51.982;5.878;2023-04-01T02:11:15;22.13;;;8.18;;
39032;SDS011;24794;51.982;5.878;2023-04-01T02:12:21;21.67;;;8.13;;
39032;SDS011;24794;51.982;5.878;2023-04-01T02:13:28;20.95;;;7.25;;
39032;SDS011;24794;51.982;5.878;2023-04-01T02:14:39;26.50;;;8.80;;
39032;SDS011;24794;51.982;5.878;2023-04-01T02:15:44;22.00;;;7.63;;
39032;SDS011;24794;51.982;5.878;2023-04-01T02:17:56;19.85;;;7.32;;
39032;SDS011;24794;51.982;5.878;2023-04-01T02:18:57;21.17;;;7.78;;
39032;SDS011;24794;51.982;5.878;2023-04-01T02:20:09;18.77;;;6.75;;
39032;SDS011;24794;51.982;5.878;2023-04-01T02:21:14;20.42;;;7.15;;
39032;SDS011;24794;51.982;5.878;2023-04-01T02:22:18;20.83;;;7.30;;
39032;SDS011;24794;51.982;5.878;2023-04-01T02:23:23;18.52;;;7.00;;
39032;SDS011;24794;51.982;5.878;2023-04-01T02:24:24;22.17;;;6.10;;
39032;SDS011;24794;51.982;5.878;2023-04-01T02:25:29;22.15;;;7.03;;
39032;SDS011;24794;51.982;5.878;2023-04-01T02:26:33;20.50;;;7.40;;
39032;SDS011;24794;51.982;5.878;2023-04-01T02:27:34;18.27;;;6.75;;
39032;SDS011;24794;51.982;5.878;2023-04-01T02:28:36;18.33;;;6.28;;
39032;SDS011;24794;51.982;5.878;2023-04-01T02:29:40;14.32;;;6.15;;
39032;SDS011;24794;51.982;5.878;2023-04-01T02:30:40;19.20;;;6.75;;
39032;SDS011;24794;51.982;5.878;2023-04-01T02:31:42;24.88;;;7.05;;
39032;SDS011;24794;51.982;5.878;2023-04-01T02:32:43;19.70;;;7.45;;
39032;SDS011;24794;51.982;5.878;2023-04-01T02:33:44;21.63;;;7.70;;
39032;SDS011;24794;51.982;5.878;2023-04-01T02:34:47;22.23;;;7.88;;
39032;SDS011;24794;51.982;5.878;2023-04-01T02:35:48;24.17;;;7.90;;
39032;SDS011;24794;51.982;5.878;2023-04-01T02:36:49;24.00;;;7.85;;
39032;SDS011;24794;51.982;5.878;2023-04-01T02:37:51;24.08;;;8.20;;
39032;SDS011;24794;51.982;5.878;2023-04-01T02:38:53;23.35;;;8.02;;
39032;SDS011;24794;51.982;5.878;2023-04-01T02:39:59;23.00;;;8.25;;
39032;SDS011;24794;51.982;5.878;2023-04-01T02:41:06;29.40;;;9.05;;
39032;SDS011;24794;51.982;5.878;2023-04-01T02:42:06;22.90;;;7.88;;
39032;SDS011;24794;51.982;5.878;2023-04-01T02:43:07;25.42;;;7.40;;
39032;SDS011;24794;51.982;5.878;2023-04-01T02:44:08;20.08;;;7.43;;
39032;SDS011;24794;51.982;5.878;2023-04-01T02:45:10;21.58;;;7.28;;
39032;SDS011;24794;51.982;5.878;2023-04-01T02:46:10;16.73;;;6.68;;
39032;SDS011;24794;51.982;5.878;2023-04-01T02:47:11;20.63;;;6.65;;
39032;SDS011;24794;51.982;5.878;2023-04-01T02:48:12;15.68;;;6.25;;
39032;SDS011;24794;51.982;5.878;2023-04-01T02:49:13;21.25;;;7.05;;
39032;SDS011;24794;51.982;5.878;2023-04-01T02:50:14;19.98;;;6.55;;
39032;SDS011;24794;51.982;5.878;2023-04-01T02:51:15;20.73;;;6.90;;
39032;SDS011;24794;51.982;5.878;2023-04-01T02:52:15;19.33;;;6.45;;
39032;SDS011;24794;51.982;5.878;2023-04-01T02:53:16;17.38;;;5.93;;
39032;SDS011;24794;51.982;5.878;2023-04-01T02:54:17;13.23;;;6.18;;
39032;SDS011;24794;51.982;5.878;2023-04-01T02:55:18;15.57;;;5.88;;
39032;SDS011;24794;51.982;5.878;2023-04-01T02:56:19;19.77;;;7.63;;
39032;SDS011;24794;51.982;5.878;2023-04-01T02:57:20;17.15;;;8.32;;
39032;SDS011;24794;51.982;5.878;2023-04-01T02:58:20;14.57;;;5.95;;
39032;SDS011;24794;51.982;5.878;2023-04-01T02:59:21;18.58;;;8.93;;
39032;SDS011;24794;51.982;5.878;2023-04-01T03:00:22;15.30;;;6.60;;
39032;SDS011;24794;51.982;5.878;2023-04-01T03:01:22;12.10;;;5.78;;
39032;SDS011;24794;51.982;5.878;2023-04-01T03:02:23;15.80;;;7.10;;
39032;SDS011;24794;51.982;5.878;2023-04-01T03:03:23;12.43;;;5.38;;
39032;SDS011;24794;51.982;5.878;2023-04-01T03:04:24;12.80;;;5.93;;
39032;SDS011;24794;51.982;5.878;2023-04-01T03:05:25;15.18;;;5.45;;
39032;SDS011;24794;51.982;5.878;2023-04-01T03:06:25;11.10;;;5.80;;
39032;SDS011;24794;51.982;5.878;2023-04-01T03:07:26;11.27;;;6.22;;
39032;SDS011;24794;51.982;5.878;2023-04-01T03:08:26;10.27;;;6.00;;
39032;SDS011;24794;51.982;5.878;2023-04-01T03:09:27;12.63;;;6.47;;
39032;SDS011;24794;51.982;5.878;2023-04-01T03:10:28;12.77;;;6.82;;
39032;SDS011;24794;51.982;5.878;2023-04-01T03:11:29;12.90;;;6.57;;
39032;SDS011;24794;51.982;5.878;2023-04-01T03:12:29;11.35;;;6.45;;
39032;SDS011;24794;51.982;5.878;2023-04-01T03:13:30;9.70;;;5.65;;
39032;SDS011;24794;51.982;5.878;2023-04-01T03:14:31;10.80;;;6.05;;
39032;SDS011;24794;51.982;5.878;2023-04-01T03:15:31;12.25;;;5.63;;
39032;SDS011;24794;51.982;5.878;2023-04-01T03:16:32;9.05;;;5.88;;
39032;SDS011;24794;51.982;5.878;2023-04-01T03:17:33;11.30;;;6.25;;
39032;SDS011;24794;51.982;5.878;2023-04-01T03:18:33;9.43;;;5.63;;
39032;SDS011;24794;51.982;5.878;2023-04-01T03:19:34;8.52;;;4.82;;
39032;SDS011;24794;51.982;5.878;2023-04-01T03:20:34;7.78;;;5.13;;
39032;SDS011;24794;51.982;5.878;2023-04-01T03:21:35;11.25;;;5.30;;
39032;SDS011;24794;51.982;5.878;2023-04-01T03:22:36;9.38;;;6.53;;
39032;SDS011;24794;51.982;5.878;2023-04-01T03:23:37;9.77;;;6.03;;
39032;SDS011;24794;51.982;5.878;2023-04-01T03:24:37;8.18;;;5.95;;
39032;SDS011;24794;51.982;5.878;2023-04-01T03:25:38;11.68;;;8.70;;
39032;SDS011;24794;51.982;5.878;2023-04-01T03:26:38;10.45;;;6.63;;
39032;SDS011;24794;51.982;5.878;2023-04-01T03:27:39;9.50;;;7.47;;
39032;SDS011;24794;51.982;5.878;2023-04-01T03:28:40;8.68;;;5.93;;
39032;SDS011;24794;51.982;5.878;2023-04-01T03:29:40;11.43;;;7.13;;
39032;SDS011;24794;51.982;5.878;2023-04-01T03:30:41;10.75;;;6.55;;
39032;SDS011;24794;51.982;5.878;2023-04-01T03:31:42;11.50;;;6.40;;
39032;SDS011;24794;51.982;5.878;2023-04-01T03:32:42;11.40;;;7.35;;
39032;SDS011;24794;51.982;5.878;2023-04-01T03:33:43;11.15;;;7.03;;
39032;SDS011;24794;51.982;5.878;2023-04-01T03:34:44;9.43;;;7.15;;
39032;SDS011;24794;51.982;5.878;2023-04-01T03:35:44;9.65;;;6.68;;
39032;SDS011;24794;51.982;5.878;2023-04-01T03:36:45;11.32;;;6.70;;
39032;SDS011;24794;51.982;5.878;2023-04-01T03:37:46;11.38;;;6.70;;
39032;SDS011;24794;51.982;5.878;2023-04-01T03:38:46;9.05;;;5.93;;
39032;SDS011;24794;51.982;5.878;2023-04-01T03:39:47;14.60;;;7.38;;
39032;SDS011;24794;51.982;5.878;2023-04-01T03:40:47;8.95;;;6.65;;
39032;SDS011;24794;51.982;5.878;2023-04-01T03:41:48;9.65;;;6.28;;
39032;SDS011;24794;51.982;5.878;2023-04-01T03:42:49;12.68;;;7.10;;
39032;SDS011;24794;51.982;5.878;2023-04-01T03:43:50;11.10;;;7.20;;
39032;SDS011;24794;51.982;5.878;2023-04-01T03:44:51;11.68;;;6.97;;
39032;SDS011;24794;51.982;5.878;2023-04-01T03:45:51;12.38;;;7.20;;
39032;SDS011;24794;51.982;5.878;2023-04-01T03:46:52;9.55;;;6.45;;
39032;SDS011;24794;51.982;5.878;2023-04-01T03:47:53;9.60;;;6.88;;
39032;SDS011;24794;51.982;5.878;2023-04-01T03:48:54;10.82;;;6.95;;
39032;SDS011;24794;51.982;5.878;2023-04-01T03:49:54;11.02;;;7.10;;
39032;SDS011;24794;51.982;5.878;2023-04-01T03:50:55;11.35;;;7.25;;
39032;SDS011;24794;51.982;5.878;2023-04-01T03:51:56;8.90;;;7.05;;
39032;SDS011;24794;51.982;5.878;2023-04-01T03:52:56;13.15;;;7.40;;
39032;SDS011;24794;51.982;5.878;2023-04-01T03:53:57;14.20;;;7.93;;
39032;SDS011;24794;51.982;5.878;2023-04-01T03:54:57;10.48;;;7.38;;
39032;SDS011;24794;51.982;5.878;2023-04-01T03:55:58;9.60;;;6.40;;
39032;SDS011;24794;51.982;5.878;2023-04-01T03:56:58;11.18;;;7.13;;
39032;SDS011;24794;51.982;5.878;2023-04-01T03:57:59;9.88;;;7.00;;
39032;SDS011;24794;51.982;5.878;2023-04-01T03:59:02;12.40;;;6.88;;
39032;SDS011;24794;51.982;5.878;2023-04-01T04:00:04;9.02;;;5.88;;
39032;SDS011;24794;51.982;5.878;2023-04-01T04:01:16;9.48;;;6.90;;
39032;SDS011;24794;51.982;5.878;2023-04-01T04:02:20;11.60;;;6.97;;
39032;SDS011;24794;51.982;5.878;2023-04-01T04:03:21;9.43;;;6.15;;
39032;SDS011;24794;51.982;5.878;2023-04-01T04:04:21;9.15;;;6.60;;
39032;SDS011;24794;51.982;5.878;2023-04-01T04:05:22;11.43;;;7.35;;
39032;SDS011;24794;51.982;5.878;2023-04-01T04:06:24;14.07;;;7.75;;
39032;SDS011;24794;51.982;5.878;2023-04-01T04:07:25;10.48;;;7.45;;
39032;SDS011;24794;51.982;5.878;2023-04-01T04:08:25;9.35;;;7.38;;
39032;SDS011;24794;51.982;5.878;2023-04-01T04:09:26;13.18;;;8.70;;
39032;SDS011;24794;51.982;5.878;2023-04-01T04:10:26;12.68;;;7.88;;
39032;SDS011;24794;51.982;5.878;2023-04-01T04:11:30;15.35;;;9.63;;
39032;SDS011;24794;51.982;5.878;2023-04-01T04:12:31;11.63;;;8.00;;
39032;SDS011;24794;51.982;5.878;2023-04-01T04:13:32;10.82;;;7.63;;
39032;SDS011;24794;51.982;5.878;2023-04-01T04:14:32;10.30;;;6.68;;
39032;SDS011;24794;51.982;5.878;2023-04-01T04:15:33;9.95;;;7.05;;
39032;SDS011;24794;51.982;5.878;2023-04-01T04:16:34;13.43;;;8.30;;
39032;SDS011;24794;51.982;5.878;2023-04-01T04:17:36;14.75;;;8.95;;
39032;SDS011;24794;51.982;5.878;2023-04-01T04:18:37;13.98;;;8.55;;
39032;SDS011;24794;51.982;5.878;2023-04-01T04:19:37;14.27;;;9.57;;
39032;SDS011;24794;51.982;5.878;2023-04-01T04:20:43;13.63;;;9.18;;
39032;SDS011;24794;51.982;5.878;2023-04-01T04:21:47;13.88;;;9.43;;
39032;SDS011;24794;51.982;5.878;2023-04-01T04:22:47;14.23;;;9.65;;
39032;SDS011;24794;51.982;5.878;2023-04-01T04:23:48;17.17;;;10.75;;
39032;SDS011;24794;51.982;5.878;2023-04-01T04:24:48;14.07;;;9.60;;
39032;SDS011;24794;51.982;5.878;2023-04-01T04:27:19;13.60;;;8.93;;
39032;SDS011;24794;51.982;5.878;2023-04-01T04:28:20;11.40;;;8.73;;
39032;SDS011;24794;51.982;5.878;2023-04-01T04:29:20;18.15;;;14.32;;
39032;SDS011;24794;51.982;5.878;2023-04-01T04:30:22;18.80;;;11.32;;
39032;SDS011;24794;51.982;5.878;2023-04-01T04:31:23;17.92;;;10.57;;
39032;SDS011;24794;51.982;5.878;2023-04-01T04:32:25;14.48;;;9.80;;
39032;SDS011;24794;51.982;5.878;2023-04-01T04:33:25;16.58;;;10.63;;
39032;SDS011;24794;51.982;5.878;2023-04-01T04:34:26;14.98;;;9.35;;
39032;SDS011;24794;51.982;5.878;2023-04-01T04:35:27;13.50;;;9.20;;
39032;SDS011;24794;51.982;5.878;2023-04-01T04:36:27;14.02;;;9.75;;
39032;SDS011;24794;51.982;5.878;2023-04-01T04:37:28;13.75;;;10.60;;
39032;SDS011;24794;51.982;5.878;2023-04-01T04:38:29;13.77;;;10.15;;
39032;SDS011;24794;51.982;5.878;2023-04-01T04:39:29;14.40;;;9.85;;
39032;SDS011;24794;51.982;5.878;2023-04-01T04:40:30;13.75;;;10.05;;
39032;SDS011;24794;51.982;5.878;2023-04-01T04:41:31;11.02;;;7.75;;
39032;SDS011;24794;51.982;5.878;2023-04-01T04:42:31;17.33;;;9.85;;
39032;SDS011;24794;51.982;5.878;2023-04-01T04:43:32;12.65;;;9.05;;
39032;SDS011;24794;51.982;5.878;2023-04-01T04:44:32;15.57;;;11.90;;
39032;SDS011;24794;51.982;5.878;2023-04-01T04:45:33;12.70;;;9.55;;
39032;SDS011;24794;51.982;5.878;2023-04-01T04:46:33;13.60;;;9.57;;
39032;SDS011;24794;51.982;5.878;2023-04-01T04:47:34;17.30;;;10.10;;
39032;SDS011;24794;51.982;5.878;2023-04-01T04:48:34;16.50;;;10.70;;
39032;SDS011;24794;51.982;5.878;2023-04-01T04:49:35;12.80;;;8.80;;
39032;SDS011;24794;51.982;5.878;2023-04-01T04:50:36;17.52;;;10.60;;
39032;SDS011;24794;51.982;5.878;2023-04-01T04:51:36;18.85;;;11.95;;
39032;SDS011;24794;51.982;5.878;2023-04-01T04:52:37;17.52;;;10.77;;
39032;SDS011;24794;51.982;5.878;2023-04-01T04:53:38;14.35;;;10.73;;
39032;SDS011;24794;51.982;5.878;2023-04-01T04:54:38;12.98;;;9.50;;
39032;SDS011;24794;51.982;5.878;2023-04-01T04:55:42;17.45;;;10.75;;
39032;SDS011;24794;51.982;5.878;2023-04-01T04:56:44;11.93;;;8.55;;
39032;SDS011;24794;51.982;5.878;2023-04-01T04:57:44;16.60;;;11.77;;
39032;SDS011;24794;51.982;5.878;2023-04-01T04:58:45;11.45;;;9.82;;
39032;SDS011;24794;51.982;5.878;2023-04-01T04:59:46;16.05;;;9.93;;
39032;SDS011;24794;51.982;5.878;2023-04-01T05:00:46;16.73;;;11.93;;
39032;SDS011;24794;51.982;5.878;2023-04-01T05:01:47;12.60;;;9.70;;
39032;SDS011;24794;51.982;5.878;2023-04-01T05:02:48;17.27;;;11.80;;
39032;SDS011;24794;51.982;5.878;2023-04-01T05:03:48;14.75;;;10.63;;
39032;SDS011;24794;51.982;5.878;2023-04-01T05:04:49;17.98;;;11.82;;
39032;SDS011;24794;51.982;5.878;2023-04-01T05:05:51;22.00;;;14.07;;
39032;SDS011;24794;51.982;5.878;2023-04-01T05:06:52;22.40;;;13.85;;
39032;SDS011;24794;51.982;5.878;2023-04-01T05:07:53;15.10;;;11.25;;
39032;SDS011;24794;51.982;5.878;2023-04-01T05:08:53;15.02;;;10.85;;
39032;SDS011;24794;51.982;5.878;2023-04-01T05:09:54;14.82;;;11.30;;
39032;SDS011;24794;51.982;5.878;2023-04-01T05:10:54;14.98;;;10.63;;
39032;SDS011;24794;51.982;5.878;2023-04-01T05:11:55;16.92;;;10.93;;
39032;SDS011;24794;51.982;5.878;2023-04-01T05:12:55;18.40;;;11.60;;
39032;SDS011;24794;51.982;5.878;2023-04-01T05:13:57;15.23;;;11.07;;
39032;SDS011;24794;51.982;5.878;2023-04-01T05:14:57;15.52;;;11.00;;
39032;SDS011;24794;51.982;5.878;2023-04-01T05:15:58;11.73;;;9.57;;
39032;SDS011;24794;51.982;5.878;2023-04-01T05:16:58;14.32;;;10.73;;
39032;SDS011;24794;51.982;5.878;2023-04-01T05:17:59;14.80;;;10.90;;
39032;SDS011;24794;51.982;5.878;2023-04-01T05:18:59;14.40;;;10.73;;
39032;SDS011;24794;51.982;5.878;2023-04-01T05:20:00;15.25;;;10.95;;
39032;SDS011;24794;51.982;5.878;2023-04-01T05:21:01;13.30;;;9.85;;
39032;SDS011;24794;51.982;5.878;2023-04-01T05:22:02;14.63;;;9.93;;
39032;SDS011;24794;51.982;5.878;2023-04-01T05:23:02;12.57;;;9.43;;
39032;SDS011;24794;51.982;5.878;2023-04-01T05:24:03;15.93;;;11.40;;
39032;SDS011;24794;51.982;5.878;2023-04-01T05:25:08;13.60;;;9.70;;
39032;SDS011;24794;51.982;5.878;2023-04-01T05:26:10;11.32;;;9.05;;
39032;SDS011;24794;51.982;5.878;2023-04-01T05:27:12;15.02;;;9.45;;
39032;SDS011;24794;51.982;5.878;2023-04-01T05:28:13;12.63;;;9.73;;
39032;SDS011;24794;51.982;5.878;2023-04-01T05:29:13;15.50;;;10.07;;
39032;SDS011;24794;51.982;5.878;2023-04-01T05:30:14;13.38;;;9.60;;
39032;SDS011;24794;51.982;5.878;2023-04-01T05:31:15;13.02;;;9.30;;
39032;SDS011;24794;51.982;5.878;2023-04-01T05:32:15;10.27;;;8.38;;
39032;SDS011;24794;51.982;5.878;2023-04-01T05:33:16;9.40;;;8.05;;
39032;SDS011;24794;51.982;5.878;2023-04-01T05:34:16;10.18;;;7.15;;
39032;SDS011;24794;51.982;5.878;2023-04-01T05:35:17;10.75;;;7.78;;
39032;SDS011;24794;51.982;5.878;2023-04-01T05:36:17;9.23;;;7.60;;
39032;SDS011;24794;51.982;5.878;2023-04-01T05:37:18;9.90;;;7.30;;
39032;SDS011;24794;51.982;5.878;2023-04-01T05:38:19;9.95;;;7.18;;
39032;SDS011;24794;51.982;5.878;2023-04-01T05:39:20;8.90;;;7.00;;
39032;SDS011;24794;51.982;5.878;2023-04-01T05:40:21;8.98;;;6.80;;
39032;SDS011;24794;51.982;5.878;2023-04-01T05:41:21;8.65;;;6.50;;
39032;SDS011;24794;51.982;5.878;2023-04-01T05:42:22;8.00;;;6.38;;
39032;SDS011;24794;51.982;5.878;2023-04-01T05:43:22;9.82;;;6.00;;
39032;SDS011;24794;51.982;5.878;2023-04-01T05:44:23;8.35;;;6.07;;
39032;SDS011;24794;51.982;5.878;2023-04-01T05:45:23;7.38;;;5.75;;
39032;SDS011;24794;51.982;5.878;2023-04-01T05:46:24;7.28;;;5.70;;
39032;SDS011;24794;51.982;5.878;2023-04-01T05:47:25;6.68;;;5.18;;
39032;SDS011;24794;51.982;5.878;2023-04-01T05:48:25;8.05;;;5.97;;
39032;SDS011;24794;51.982;5.878;2023-04-01T05:49:26;8.70;;;5.90;;
39032;SDS011;24794;51.982;5.878;2023-04-01T05:50:26;9.82;;;6.10;;
39032;SDS011;24794;51.982;5.878;2023-04-01T05:51:27;9.40;;;6.30;;
39032;SDS011;24794;51.982;5.878;2023-04-01T05:52:27;8.25;;;6.10;;
39032;SDS011;24794;51.982;5.878;2023-04-01T05:53:28;9.80;;;7.20;;
39032;SDS011;24794;51.982;5.878;2023-04-01T05:54:29;9.05;;;6.63;;
39032;SDS011;24794;51.982;5.878;2023-04-01T05:55:29;10.73;;;6.70;;
39032;SDS011;24794;51.982;5.878;2023-04-01T05:56:30;8.25;;;6.35;;
39032;SDS011;24794;51.982;5.878;2023-04-01T05:57:31;9.13;;;6.30;;
39032;SDS011;24794;51.982;5.878;2023-04-01T05:58:31;9.57;;;6.03;;
39032;SDS011;24794;51.982;5.878;2023-04-01T05:59:32;13.38;;;8.07;;
39032;SDS011;24794;51.982;5.878;2023-04-01T06:00:34;11.07;;;7.63;;
39032;SDS011;24794;51.982;5.878;2023-04-01T06:01:35;10.23;;;7.30;;
39032;SDS011;24794;51.982;5.878;2023-04-01T06:02:36;10.90;;;6.70;;
39032;SDS011;24794;51.982;5.878;2023-04-01T06:03:37;14.30;;;8.23;;
39032;SDS011;24794;51.982;5.878;2023-04-01T06:04:38;10.40;;;6.28;;
39032;SDS011;24794;51.982;5.878;2023-04-01T06:05:41;12.15;;;7.10;;
39032;SDS011;24794;51.982;5.878;2023-04-01T06:06:43;13.20;;;8.70;;
39032;SDS011;24794;51.982;5.878;2023-04-01T06:07:44;10.23;;;6.82;;
39032;SDS011;24794;51.982;5.878;2023-04-01T06:08:45;13.07;;;7.90;;
39032;SDS011;24794;51.982;5.878;2023-04-01T06:09:45;11.23;;;6.97;;
39032;SDS011;24794;51.982;5.878;2023-04-01T06:13:06;20.17;;;10.32;;
39032;SDS011;24794;51.982;5.878;2023-04-01T06:18:15;18.23;;;9.75;;
39032;SDS011;24794;51.982;5.878;2023-04-01T06:21:06;17.83;;;9.57;;
39032;SDS011;24794;51.982;5.878;2023-04-01T06:26:28;15.00;;;8.30;;
39032;SDS011;24794;51.982;5.878;2023-04-01T06:28:57;15.88;;;8.25;;
39032;SDS011;24794;51.982;5.878;2023-04-01T06:30:03;15.60;;;8.73;;
39032;SDS011;24794;51.982;5.878;2023-04-01T06:33:08;18.67;;;8.98;;
39032;SDS011;24794;51.982;5.878;2023-04-01T06:35:36;17.67;;;10.13;;
39032;SDS011;24794;51.982;5.878;2023-04-01T06:37:24;22.02;;;10.88;;
39032;SDS011;24794;51.982;5.878;2023-04-01T06:39:53;18.05;;;9.02;;
39032;SDS011;24794;51.982;5.878;2023-04-01T06:42:12;14.45;;;8.65;;
39032;SDS011;24794;51.982;5.878;2023-04-01T06:43:37;18.05;;;8.52;;
39032;SDS011;24794;51.982;5.878;2023-04-01T06:44:58;16.67;;;8.07;;
39032;SDS011;24794;51.982;5.878;2023-04-01T06:46:33;14.93;;;8.02;;
39032;SDS011;24794;51.982;5.878;2023-04-01T06:47:48;15.93;;;7.65;;
39032;SDS011;24794;51.982;5.878;2023-04-01T06:51:27;12.98;;;7.13;;
39032;SDS011;24794;51.982;5.878;2023-04-01T06:54:12;12.27;;;6.72;;
39032;SDS011;24794;51.982;5.878;2023-04-01T06:55:40;11.93;;;6.65;;